Time;durP1;ratioP1;P1;durP2;ratioP2;P2;SDS_P1;SDS_P2;PMS_P1;PMS_P2;Temp;Humidity;BMP_temperature;BMP_pressure;BME280_temperature;BME280_humidity;BME280_pressure;Samples;Min_cycle;Max_cycle;Signal;HPM_P1;HPM_P2
2023/03/14 00:00:24;;;;;;;27.50;18.85;;;;;;;;;;6336132;28;20060;-70
2023/03/14 00:03:25;;;;;;;25.27;18.20;;;;;;;;;;6334091;28;20051;-71
2023/03/14 00:06:29;;;;;;;27.63;18.88;;;;;;;;;;6336499;27;20044;-67
2023/03/14 00:09:30;;;;;;;28.37;18.67;;;;;;;;;;6337908;28;20052;-70
2023/03/14 00:12:32;;;;;;;27.42;17.75;;;;;;;;;;6336329;27;20052;-70
2023/03/14 00:15:34;;;;;;;27.45;17.92;;;;;;;;;;6340472;28;20320;-69
2023/03/14 00:18:36;;;;;;;27.98;18.85;;;;;;;;;;6336157;28;20056;-71
2023/03/14 00:21:39;;;;;;;29.08;17.60;;;;;;;;;;6334577;28;20085;-70
2023/03/14 00:24:41;;;;;;;25.60;17.87;;;;;;;;;;6337690;27;20081;-66
2023/03/14 00:27:42;;;;;;;29.25;17.30;;;;;;;;;;6336981;27;20051;-69
2023/03/14 00:30:44;;;;;;;26.10;16.98;;;;;;;;;;6335326;27;20079;-70
2023/03/14 00:33:46;;;;;;;26.80;17.77;;;;;;;;;;6339280;28;20052;-70
2023/03/14 00:36:49;;;;;;;27.40;17.92;;;;;;;;;;6329991;28;20143;-71
2023/03/14 00:39:52;;;;;;;28.70;18.60;;;;;;;;;;6338792;28;20248;-71
2023/03/14 00:42:54;;;;;;;29.70;19.50;;;;;;;;;;6336098;28;20047;-71
2023/03/14 00:45:56;;;;;;;28.92;19.40;;;;;;;;;;6336069;28;20143;-71
2023/03/14 00:48:58;;;;;;;28.80;18.50;;;;;;;;;;6335311;27;20262;-68
2023/03/14 00:52:01;;;;;;;28.35;19.40;;;;;;;;;;6336563;28;20060;-72
2023/03/14 00:55:03;;;;;;;28.52;17.80;;;;;;;;;;6336197;28;20039;-71
2023/03/14 00:58:05;;;;;;;29.10;18.23;;;;;;;;;;6335774;27;20100;-68
2023/03/14 01:01:07;;;;;;;31.02;18.45;;;;;;;;;;6336289;28;20125;-68
2023/03/14 01:04:09;;;;;;;25.77;18.25;;;;;;;;;;6334040;28;20074;-71
2023/03/14 01:07:12;;;;;;;29.23;18.02;;;;;;;;;;6335733;28;20051;-72
2023/03/14 01:10:14;;;;;;;27.20;18.20;;;;;;;;;;6338469;28;20420;-72
2023/03/14 01:13:15;;;;;;;27.58;16.42;;;;;;;;;;6336737;28;20246;-69
2023/03/14 01:16:18;;;;;;;21.73;15.27;;;;;;;;;;6335794;28;20096;-69
2023/03/14 01:19:20;;;;;;;25.92;15.90;;;;;;;;;;6335506;27;20056;-68
2023/03/14 01:22:23;;;;;;;21.55;15.50;;;;;;;;;;6336224;28;20055;-71
2023/03/14 01:25:26;;;;;;;23.42;15.18;;;;;;;;;;6332925;27;20043;-68
2023/03/14 01:28:27;;;;;;;23.48;15.88;;;;;;;;;;6334482;28;20211;-71
2023/03/14 01:31:29;;;;;;;21.35;14.20;;;;;;;;;;6332408;28;20049;-68
2023/03/14 01:34:31;;;;;;;23.88;15.15;;;;;;;;;;6331376;27;20235;-69
2023/03/14 01:37:34;;;;;;;26.25;15.45;;;;;;;;;;6336554;27;20343;-71
2023/03/14 01:40:42;;;;;;;24.65;16.00;;;;;;;;;;6335730;28;20047;-71
2023/03/14 01:43:44;;;;;;;26.50;16.52;;;;;;;;;;6337976;28;20119;-70
2023/03/14 01:46:47;;;;;;;24.67;15.10;;;;;;;;;;6332634;28;20744;-70
2023/03/14 01:49:52;;;;;;;24.67;16.60;;;;;;;;;;6335340;28;20044;-72
2023/03/14 01:52:55;;;;;;;24.35;16.13;;;;;;;;;;6335722;28;20051;-71
2023/03/14 01:55:58;;;;;;;27.45;17.48;;;;;;;;;;6333985;28;20047;-71
2023/03/14 01:59:00;;;;;;;24.08;16.23;;;;;;;;;;6333997;28;20055;-71
2023/03/14 02:02:05;;;;;;;23.27;15.90;;;;;;;;;;6332220;28;20052;-71
2023/03/14 02:05:07;;;;;;;26.00;17.17;;;;;;;;;;6335319;27;20062;-71
2023/03/14 02:08:12;;;;;;;27.45;16.80;;;;;;;;;;6333880;28;20104;-71
2023/03/14 02:11:14;;;;;;;26.70;17.48;;;;;;;;;;6338392;27;20209;-71
2023/03/14 02:14:26;;;;;;;27.25;17.05;;;;;;;;;;6336260;28;20109;-70
2023/03/14 02:17:28;;;;;;;24.50;16.63;;;;;;;;;;6325610;28;20056;-72
2023/03/14 02:20:35;;;;;;;25.17;15.98;;;;;;;;;;6309205;28;20332;-71
2023/03/14 02:23:45;;;;;;;22.98;15.23;;;;;;;;;;6310591;28;20056;-71
2023/03/14 02:27:04;;;;;;;24.40;15.90;;;;;;;;;;6312843;28;20059;-71
2023/03/14 02:30:10;;;;;;;22.10;15.27;;;;;;;;;;6307419;28;20217;-71
2023/03/14 02:33:14;;;;;;;22.13;16.35;;;;;;;;;;6308081;28;20288;-71
2023/03/14 02:36:16;;;;;;;23.13;14.52;;;;;;;;;;6310899;28;20059;-70
2023/03/14 02:39:23;;;;;;;24.38;15.52;;;;;;;;;;6311279;28;20243;-71
2023/03/14 02:42:26;;;;;;;26.05;15.07;;;;;;;;;;6313281;28;20051;-71
2023/03/14 02:45:37;;;;;;;21.33;15.48;;;;;;;;;;6310047;28;20248;-70
2023/03/14 02:48:41;;;;;;;23.10;15.30;;;;;;;;;;6316297;28;20071;-71
2023/03/14 02:51:42;;;;;;;;;;;;;;;;;;6320676;28;20055;-72
2023/03/14 02:54:44;;;;;;;20.77;14.30;;;;;;;;;;6318395;28;19983;-70
2023/03/14 02:57:47;;;;;;;22.70;14.93;;;;;;;;;;6320355;28;20062;-70
2023/03/14 03:00:49;;;;;;;22.50;15.18;;;;;;;;;;6321081;28;20120;-71
2023/03/14 03:03:51;;;;;;;23.75;14.85;;;;;;;;;;6320244;28;20427;-71
2023/03/14 03:06:53;;;;;;;23.10;15.48;;;;;;;;;;6322339;28;20044;-70
2023/03/14 03:09:55;;;;;;;22.35;15.90;;;;;;;;;;6318837;28;20098;-70
2023/03/14 03:12:58;;;;;;;22.70;14.95;;;;;;;;;;6315599;28;20055;-71
2023/03/14 03:15:59;;;;;;;27.90;15.50;;;;;;;;;;6311394;28;20098;-72
2023/03/14 03:19:01;;;;;;;24.45;15.13;;;;;;;;;;6311747;28;20071;-71
2023/03/14 03:22:03;;;;;;;24.58;15.93;;;;;;;;;;6311317;28;20047;-71
2023/03/14 03:25:05;;;;;;;23.52;15.80;;;;;;;;;;6312331;28;20054;-71
2023/03/14 03:28:08;;;;;;;22.70;16.05;;;;;;;;;;6310834;28;20214;-70
2023/03/14 03:31:12;;;;;;;21.37;15.77;;;;;;;;;;6312119;28;20249;-69
2023/03/14 03:34:13;;;;;;;28.35;16.17;;;;;;;;;;6310477;28;20136;-70
2023/03/14 03:37:15;;;;;;;24.33;16.60;;;;;;;;;;6310801;28;20051;-71
2023/03/14 03:40:17;;;;;;;22.13;15.80;;;;;;;;;;6313788;28;20056;-68
2023/03/14 03:43:20;;;;;;;22.45;15.85;;;;;;;;;;6313275;28;20244;-71
2023/03/14 03:46:22;;;;;;;24.40;17.20;;;;;;;;;;6310860;28;20192;-73
2023/03/14 03:49:23;;;;;;;28.58;17.20;;;;;;;;;;6312830;28;20089;-70
2023/03/14 03:52:25;;;;;;;29.65;17.15;;;;;;;;;;6308895;28;20213;-69
2023/03/14 03:55:27;;;;;;;29.35;18.05;;;;;;;;;;6313772;28;20056;-66
2023/03/14 03:58:30;;;;;;;27.17;18.77;;;;;;;;;;6310396;28;20072;-72
2023/03/14 04:01:32;;;;;;;31.52;19.92;;;;;;;;;;6311262;28;20125;-71
2023/03/14 04:04:34;;;;;;;28.58;20.25;;;;;;;;;;6313775;28;20086;-71
2023/03/14 04:07:35;;;;;;;32.80;20.40;;;;;;;;;;6312264;28;20256;-69
2023/03/14 04:10:37;;;;;;;31.02;20.60;;;;;;;;;;6311756;28;20044;-70
2023/03/14 04:13:40;;;;;;;34.95;21.77;;;;;;;;;;6314344;28;20066;-69
2023/03/14 04:16:42;;;;;;;34.60;21.83;;;;;;;;;;6312105;28;20055;-69
2023/03/14 04:19:43;;;;;;;39.17;20.92;;;;;;;;;;6312799;28;20047;-69
2023/03/14 04:22:45;;;;;;;34.78;20.85;;;;;;;;;;6311161;28;20052;-72
2023/03/14 04:25:47;;;;;;;39.40;21.52;;;;;;;;;;6313929;28;20056;-69
2023/03/14 04:28:50;;;;;;;35.58;22.83;;;;;;;;;;6309430;28;20351;-70
2023/03/14 04:31:51;;;;;;;36.72;22.92;;;;;;;;;;6311290;28;20129;-71
2023/03/14 04:34:53;;;;;;;39.20;23.98;;;;;;;;;;6309890;28;20051;-70
2023/03/14 04:37:54;;;;;;;44.05;24.55;;;;;;;;;;6311445;28;20340;-69
2023/03/14 04:40:56;;;;;;;42.85;24.95;;;;;;;;;;6312836;28;20056;-70
2023/03/14 04:43:59;;;;;;;41.20;24.02;;;;;;;;;;6311261;28;20287;-70
2023/03/14 04:47:00;;;;;;;44.15;25.35;;;;;;;;;;6311658;28;20152;-72
2023/03/14 04:50:02;;;;;;;39.50;23.90;;;;;;;;;;6310400;28;20052;-66
2023/03/14 04:53:04;;;;;;;38.97;23.70;;;;;;;;;;6313622;28;20145;-70
2023/03/14 04:56:06;;;;;;;39.03;24.50;;;;;;;;;;6315026;28;20048;-66
2023/03/14 04:59:09;;;;;;;41.10;24.08;;;;;;;;;;6309010;28;20085;-66
2023/03/14 05:02:11;;;;;;;38.60;22.90;;;;;;;;;;6310374;28;20271;-70
2023/03/14 05:05:13;;;;;;;39.65;23.17;;;;;;;;;;6309700;28;20059;-72
2023/03/14 05:08:14;;;;;;;39.67;22.25;;;;;;;;;;6310412;28;20532;-70
2023/03/14 05:11:16;;;;;;;40.38;22.40;;;;;;;;;;6307795;28;20045;-69
2023/03/14 05:14:19;;;;;;;41.63;22.77;;;;;;;;;;6313027;28;20105;-69
2023/03/14 05:17:21;;;;;;;39.28;21.25;;;;;;;;;;6308926;28;20093;-69
2023/03/14 05:20:22;;;;;;;33.15;22.05;;;;;;;;;;6309685;28;20128;-69
2023/03/14 05:23:24;;;;;;;35.28;21.15;;;;;;;;;;6311912;28;20078;-69
2023/03/14 05:26:25;;;;;;;39.20;21.42;;;;;;;;;;6307692;28;20048;-69
2023/03/14 05:29:28;;;;;;;35.08;22.00;;;;;;;;;;6310284;28;20064;-69
2023/03/14 05:32:30;;;;;;;40.92;22.08;;;;;;;;;;6310621;28;20117;-69
2023/03/14 05:35:32;;;;;;;37.85;20.42;;;;;;;;;;6307706;28;20086;-68
2023/03/14 05:38:33;;;;;;;35.83;21.80;;;;;;;;;;6307733;28;20068;-69
2023/03/14 05:41:35;;;;;;;32.10;20.52;;;;;;;;;;6311103;28;20048;-69
2023/03/14 05:44:38;;;;;;;35.50;22.10;;;;;;;;;;6308929;28;20060;-69
2023/03/14 05:47:40;;;;;;;36.70;22.20;;;;;;;;;;6308073;28;20345;-69
2023/03/14 05:50:41;;;;;;;38.90;23.88;;;;;;;;;;6307344;28;20280;-69
2023/03/14 05:53:43;;;;;;;37.38;22.73;;;;;;;;;;6309311;28;20051;-70
2023/03/14 05:56:44;;;;;;;38.03;23.85;;;;;;;;;;6309664;28;20064;-69
2023/03/14 05:59:47;;;;;;;39.33;24.83;;;;;;;;;;6309179;28;20072;-70
2023/03/14 06:02:49;;;;;;;43.75;25.55;;;;;;;;;;6306079;28;20105;-68
2023/03/14 06:05:51;;;;;;;42.08;24.65;;;;;;;;;;6310263;28;20429;-71
2023/03/14 06:08:53;;;;;;;44.15;26.50;;;;;;;;;;6310443;28;20281;-71
2023/03/14 06:11:54;;;;;;;41.90;25.70;;;;;;;;;;6308472;28;20047;-71
2023/03/14 06:14:57;;;;;;;44.20;26.35;;;;;;;;;;6313254;28;20341;-69
2023/03/14 06:17:59;;;;;;;44.70;25.38;;;;;;;;;;6308028;28;20048;-73
2023/03/14 06:21:01;;;;;;;44.78;25.90;;;;;;;;;;6312413;28;20089;-66
2023/03/14 06:24:03;;;;;;;40.05;25.02;;;;;;;;;;6313544;28;20052;-72
2023/03/14 06:27:05;;;;;;;38.40;24.35;;;;;;;;;;6315818;28;20057;-71
2023/03/14 06:30:09;;;;;;;37.88;24.58;;;;;;;;;;6315977;28;20064;-72
2023/03/14 06:33:11;;;;;;;46.25;27.27;;;;;;;;;;6309783;28;20056;-70
2023/03/14 06:36:12;;;;;;;43.38;25.60;;;;;;;;;;6315786;28;20060;-71
2023/03/14 06:39:14;;;;;;;41.33;26.33;;;;;;;;;;6315183;28;20113;-71
2023/03/14 06:42:15;;;;;;;46.08;26.60;;;;;;;;;;6312760;28;20045;-72
2023/03/14 06:45:18;;;;;;;44.67;25.63;;;;;;;;;;6311054;28;20041;-74
2023/03/14 06:48:20;;;;;;;38.17;24.75;;;;;;;;;;6310721;28;20297;-70
2023/03/14 06:51:22;;;;;;;40.53;26.63;;;;;;;;;;6315206;28;20098;-72
2023/03/14 06:54:24;;;;;;;45.03;26.27;;;;;;;;;;6315655;28;20083;-72
2023/03/14 06:57:25;;;;;;;45.88;27.60;;;;;;;;;;6339142;28;20084;-71
2023/03/14 07:00:28;;;;;;;43.63;25.83;;;;;;;;;;6336422;28;20071;-69
2023/03/14 07:03:30;;;;;;;40.50;26.27;;;;;;;;;;6339532;27;20066;-72
2023/03/14 07:06:31;;;;;;;43.22;26.65;;;;;;;;;;6335081;28;20060;-72
2023/03/14 07:09:34;;;;;;;39.53;26.05;;;;;;;;;;6336216;27;20059;-72
2023/03/14 07:12:35;;;;;;;37.30;24.98;;;;;;;;;;6334828;28;20055;-72
2023/03/14 07:15:38;;;;;;;37.85;24.13;;;;;;;;;;6339886;28;20067;-72
2023/03/14 07:18:40;;;;;;;40.15;26.10;;;;;;;;;;6336528;28;20469;-72
2023/03/14 07:21:41;;;;;;;44.05;26.45;;;;;;;;;;6340333;27;20052;-67
2023/03/14 07:24:43;;;;;;;38.70;25.40;;;;;;;;;;6338939;28;20055;-70
2023/03/14 07:27:46;;;;;;;35.97;24.52;;;;;;;;;;6339619;27;20043;-71
2023/03/14 07:30:49;;;;;;;39.25;25.60;;;;;;;;;;6340004;27;20112;-73
2023/03/14 07:33:51;;;;;;;34.38;23.33;;;;;;;;;;6336592;28;20055;-72
2023/03/14 07:36:52;;;;;;;35.72;22.27;;;;;;;;;;6336187;28;20059;-73
2023/03/14 07:39:54;;;;;;;32.67;22.58;;;;;;;;;;6339978;28;20047;-71
2023/03/14 07:42:56;;;;;;;31.95;21.08;;;;;;;;;;6337037;27;20320;-70
2023/03/14 07:45:58;;;;;;;28.63;19.35;;;;;;;;;;6341273;27;20059;-72
2023/03/14 07:49:00;;;;;;;26.58;19.58;;;;;;;;;;6336846;28;20097;-72
2023/03/14 07:52:02;;;;;;;32.40;21.67;;;;;;;;;;6336352;27;20084;-72
2023/03/14 07:55:04;;;;;;;30.55;21.73;;;;;;;;;;6343389;28;20063;-72
2023/03/14 07:58:06;;;;;;;29.58;20.63;;;;;;;;;;6335432;27;21171;-71
2023/03/14 08:01:09;;;;;;;26.05;18.67;;;;;;;;;;6339303;28;20116;-73
2023/03/14 08:04:11;;;;;;;25.80;17.85;;;;;;;;;;6338924;28;20051;-71
2023/03/14 08:07:13;;;;;;;27.05;18.27;;;;;;;;;;6338254;28;20328;-69
2023/03/14 08:10:21;;;;;;;24.25;16.30;;;;;;;;;;6335811;28;20059;-73
2023/03/14 08:13:25;;;;;;;25.75;17.23;;;;;;;;;;6334948;27;20048;-72
2023/03/14 08:16:28;;;;;;;27.83;19.10;;;;;;;;;;6339573;28;20051;-72
2023/03/14 08:19:30;;;;;;;26.13;18.75;;;;;;;;;;6338903;28;20401;-72
2023/03/14 08:22:31;;;;;;;28.27;19.80;;;;;;;;;;6337048;27;20044;-70
2023/03/14 08:25:33;;;;;;;24.65;17.60;;;;;;;;;;6338578;28;20044;-73
2023/03/14 08:28:35;;;;;;;25.85;19.45;;;;;;;;;;6338448;28;20078;-72
2023/03/14 08:31:38;;;;;;;25.48;19.88;;;;;;;;;;6338681;28;20051;-66
2023/03/14 08:34:40;;;;;;;26.55;18.65;;;;;;;;;;6334594;28;20056;-72
2023/03/14 08:37:42;;;;;;;27.58;17.88;;;;;;;;;;6335360;27;20059;-72
2023/03/14 08:40:43;;;;;;;24.10;17.58;;;;;;;;;;6335429;28;20048;-70
2023/03/14 08:43:45;;;;;;;24.08;18.23;;;;;;;;;;6340336;28;20139;-71
2023/03/14 08:46:48;;;;;;;24.23;17.88;;;;;;;;;;6335071;28;20115;-72
2023/03/14 08:49:49;;;;;;;23.63;18.27;;;;;;;;;;6334769;27;20081;-71
2023/03/14 08:52:51;;;;;;;25.15;17.42;;;;;;;;;;6334979;28;20044;-71
2023/03/14 08:55:54;;;;;;;25.48;17.48;;;;;;;;;;6338592;28;20051;-69
2023/03/14 08:58:55;;;;;;;26.50;16.73;;;;;;;;;;6338385;28;20116;-73
2023/03/14 09:01:58;;;;;;;24.27;17.90;;;;;;;;;;6337172;28;20378;-72
2023/03/14 09:05:00;;;;;;;20.60;16.05;;;;;;;;;;6335346;28;20277;-72
2023/03/14 09:08:02;;;;;;;20.80;14.93;;;;;;;;;;6334470;28;20054;-74
2023/03/14 09:11:04;;;;;;;20.67;16.88;;;;;;;;;;6337326;28;20044;-72
2023/03/14 09:14:05;;;;;;;24.00;16.13;;;;;;;;;;6334904;28;20147;-73
2023/03/14 09:17:08;;;;;;;23.90;16.65;;;;;;;;;;6338629;28;20078;-72
2023/03/14 09:20:11;;;;;;;24.92;17.52;;;;;;;;;;6334901;28;20197;-72
2023/03/14 09:23:13;;;;;;;26.80;19.75;;;;;;;;;;6337330;28;20093;-72
2023/03/14 09:26:14;;;;;;;27.83;19.55;;;;;;;;;;6335841;28;20056;-72
2023/03/14 09:29:16;;;;;;;30.50;18.58;;;;;;;;;;6335539;27;20048;-75
2023/03/14 09:32:19;;;;;;;29.33;18.40;;;;;;;;;;6333365;28;20048;-72
2023/03/14 09:35:20;;;;;;;27.27;18.85;;;;;;;;;;6335393;28;20051;-71
2023/03/14 09:38:23;;;;;;;26.42;18.48;;;;;;;;;;6336479;28;20063;-71
2023/03/14 09:41:26;;;;;;;36.22;21.75;;;;;;;;;;6335453;28;20062;-71
2023/03/14 09:44:30;;;;;;;39.38;22.60;;;;;;;;;;6334266;28;20048;-73
2023/03/14 09:47:33;;;;;;;40.58;22.75;;;;;;;;;;6334878;28;20111;-69
2023/03/14 09:50:38;;;;;;;35.03;22.27;;;;;;;;;;6338445;28;20379;-73
2023/03/14 09:53:42;;;;;;;33.28;21.48;;;;;;;;;;6334451;28;20150;-72
2023/03/14 09:56:44;;;;;;;35.65;21.00;;;;;;;;;;6335781;28;20256;-70
2023/03/14 09:59:47;;;;;;;35.50;21.23;;;;;;;;;;6333791;28;20101;-68
2023/03/14 10:02:53;;;;;;;31.85;19.48;;;;;;;;;;6334516;28;20040;-72
2023/03/14 10:05:56;;;;;;;27.55;17.55;;;;;;;;;;6332519;28;20115;-71
2023/03/14 10:08:58;;;;;;;27.48;17.52;;;;;;;;;;6336845;28;20048;-73
2023/03/14 10:12:00;;;;;;;28.95;15.40;;;;;;;;;;6335021;28;20055;-72
2023/03/14 10:15:04;;;;;;;28.15;15.57;;;;;;;;;;6337632;28;20060;-72
2023/03/14 10:18:12;;;;;;;;;;;;;;;;;;6336195;28;20074;-72
2023/03/14 10:21:25;;;;;;;21.88;14.23;;;;;;;;;;6333228;27;19999;-73
2023/03/14 10:24:28;;;;;;;19.90;13.73;;;;;;;;;;6333210;28;20228;-72
2023/03/14 10:27:31;;;;;;;19.75;13.25;;;;;;;;;;6334833;28;20135;-70
2023/03/14 10:30:43;;;;;;;18.93;12.97;;;;;;;;;;6339369;28;20064;-72
2023/03/14 10:33:59;;;;;;;17.88;13.02;;;;;;;;;;6337383;28;20259;-72
2023/03/14 10:37:07;;;;;;;22.17;13.05;;;;;;;;;;6335383;28;20044;-70
2023/03/14 10:40:14;;;;;;;19.83;12.60;;;;;;;;;;6336674;28;20139;-72
2023/03/14 10:43:19;;;;;;;16.38;11.57;;;;;;;;;;6337130;28;20055;-73
2023/03/14 10:46:21;;;;;;;17.88;11.43;;;;;;;;;;6340011;28;20052;-72
2023/03/14 10:49:29;;;;;;;18.73;12.02;;;;;;;;;;6339223;27;20067;-72
2023/03/14 10:52:32;;;;;;;14.52;11.38;;;;;;;;;;6336969;28;20056;-70
2023/03/14 10:55:43;;;;;;;17.55;12.57;;;;;;;;;;6339849;28;20130;-72
2023/03/14 10:58:45;;;;;;;16.25;11.95;;;;;;;;;;6339734;28;20071;-73
2023/03/14 11:01:51;;;;;;;16.58;12.18;;;;;;;;;;6338805;28;20048;-72
2023/03/14 11:05:05;;;;;;;22.38;15.15;;;;;;;;;;6342117;28;20097;-72
2023/03/14 11:08:09;;;;;;;21.63;14.57;;;;;;;;;;6343892;27;20079;-73
2023/03/14 11:11:15;;;;;;;20.08;14.85;;;;;;;;;;6342497;28;20047;-73
2023/03/14 11:14:25;;;;;;;22.45;15.07;;;;;;;;;;6343624;28;20084;-72
2023/03/14 11:17:30;;;;;;;20.75;15.20;;;;;;;;;;6344269;28;20081;-72
2023/03/14 11:20:37;;;;;;;23.55;17.40;;;;;;;;;;6338504;27;20047;-71
2023/03/14 11:23:43;;;;;;;24.02;16.13;;;;;;;;;;6339373;28;20336;-70
2023/03/14 11:26:50;;;;;;;25.60;17.05;;;;;;;;;;6340465;28;20197;-72
2023/03/14 11:29:56;;;;;;;24.65;17.77;;;;;;;;;;6341068;28;20219;-72
2023/03/14 11:33:03;;;;;;;21.70;15.38;;;;;;;;;;6337386;27;20093;-69
2023/03/14 11:36:08;;;;;;;22.05;15.75;;;;;;;;;;6337382;28;20159;-71
2023/03/14 11:39:14;;;;;;;20.05;15.13;;;;;;;;;;6336553;27;20040;-71
2023/03/14 11:42:17;;;;;;;19.55;13.63;;;;;;;;;;6336392;28;20056;-72
2023/03/14 11:45:23;;;;;;;23.08;16.27;;;;;;;;;;6337668;28;20089;-73
2023/03/14 11:48:32;;;;;;;22.45;15.20;;;;;;;;;;6339102;28;20055;-72
2023/03/14 11:51:36;;;;;;;21.33;15.05;;;;;;;;;;6330654;28;20137;-71
2023/03/14 11:54:45;;;;;;;20.60;14.80;;;;;;;;;;6311552;28;20115;-65
2023/03/14 11:57:48;;;;;;;24.42;14.82;;;;;;;;;;6311933;28;20122;-68
2023/03/14 12:00:52;;;;;;;22.10;14.65;;;;;;;;;;6312343;28;20059;-73
2023/03/14 12:03:57;;;;;;;21.98;16.52;;;;;;;;;;6310173;28;20098;-70
2023/03/14 12:07:03;;;;;;;29.05;19.85;;;;;;;;;;6310187;28;20048;-69
2023/03/14 12:10:05;;;;;;;30.48;20.92;;;;;;;;;;6310312;28;20067;-70
2023/03/14 12:13:08;;;;;;;29.75;21.63;;;;;;;;;;6312017;28;20052;-72
2023/03/14 12:16:25;;;;;;;28.03;19.77;;;;;;;;;;6314255;28;20036;-69
2023/03/14 12:19:30;;;;;;;33.10;21.30;;;;;;;;;;6313648;28;20044;-69
2023/03/14 12:22:34;;;;;;;27.70;20.10;;;;;;;;;;6307382;28;20130;-70
2023/03/14 12:25:36;;;;;;;30.92;20.77;;;;;;;;;;6315787;28;20125;-70
2023/03/14 12:28:39;;;;;;;31.83;20.75;;;;;;;;;;6313570;28;20060;-69
2023/03/14 12:31:44;;;;;;;31.03;21.30;;;;;;;;;;6316822;28;20344;-71
2023/03/14 12:34:45;;;;;;;34.45;22.77;;;;;;;;;;6317230;28;20669;-71
2023/03/14 12:37:49;;;;;;;31.52;21.83;;;;;;;;;;6317146;28;20115;-69
2023/03/14 12:40:53;;;;;;;;;;;;;;;;;;6315346;28;20047;-72
2023/03/14 12:43:55;;;;;;;31.45;20.55;;;;;;;;;;6316016;28;20164;-73
2023/03/14 12:46:57;;;;;;;33.00;21.60;;;;;;;;;;6315390;28;20145;-71
2023/03/14 12:50:09;;;;;;;33.72;20.17;;;;;;;;;;6313733;28;20452;-70
2023/03/14 12:53:38;;;;;;;26.67;19.48;;;;;;;;;;6314981;28;20058;-71
2023/03/14 12:56:52;;;;;;;29.27;19.02;;;;;;;;;;6318184;28;20358;-71
2023/03/14 12:59:57;;;;;;;25.05;18.25;;;;;;;;;;6315663;28;20075;-71
2023/03/14 13:03:03;;;;;;;25.02;17.73;;;;;;;;;;6315114;28;20044;-71
2023/03/14 13:06:06;;;;;;;24.45;18.25;;;;;;;;;;6318172;28;20052;-71
2023/03/14 13:09:53;;;;;;;30.40;19.63;;;;;;;;;;6315242;28;20062;-72
2023/03/14 13:12:57;;;;;;;27.75;19.30;;;;;;;;;;6312362;28;20051;-70
2023/03/14 13:16:03;;;;;;;27.45;19.42;;;;;;;;;;6316588;28;20090;-68
2023/03/14 13:19:14;;;;;;;29.58;19.98;;;;;;;;;;6319125;28;20068;-73
2023/03/14 13:22:20;;;;;;;30.23;20.60;;;;;;;;;;6317192;28;20101;-72
2023/03/14 13:25:23;;;;;;;24.38;17.08;;;;;;;;;;6316135;28;20055;-69
2023/03/14 13:28:25;;;;;;;26.33;17.10;;;;;;;;;;6311783;28;20153;-70
2023/03/14 13:31:27;;;;;;;21.85;15.63;;;;;;;;;;6311019;28;20064;-71
2023/03/14 13:34:30;;;;;;;22.15;16.40;;;;;;;;;;6309360;28;20340;-73
2023/03/14 13:37:31;;;;;;;21.10;16.10;;;;;;;;;;6309336;28;20048;-72
2023/03/14 13:40:35;;;;;;;22.40;15.30;;;;;;;;;;6308371;28;20214;-71
2023/03/14 13:43:40;;;;;;;28.10;16.17;;;;;;;;;;6312414;28;20138;-65
2023/03/14 13:46:42;;;;;;;21.13;15.50;;;;;;;;;;6310186;28;20103;-71
2023/03/14 13:49:44;;;;;;;18.17;14.68;;;;;;;;;;6312105;28;20052;-71
2023/03/14 13:52:48;;;;;;;20.88;16.13;;;;;;;;;;6311276;28;20060;-71
2023/03/14 13:55:52;;;;;;;18.08;15.10;;;;;;;;;;6311545;28;20229;-71
2023/03/14 13:58:54;;;;;;;21.13;15.25;;;;;;;;;;6308610;28;20328;-69
2023/03/14 14:01:56;;;;;;;19.27;14.75;;;;;;;;;;6309176;28;20062;-72
2023/03/14 14:04:58;;;;;;;20.60;14.85;;;;;;;;;;6310056;28;20052;-72
2023/03/14 14:08:00;;;;;;;18.50;14.73;;;;;;;;;;6308410;28;20057;-72
2023/03/14 14:11:04;;;;;;;19.83;14.80;;;;;;;;;;6305093;28;20106;-71
2023/03/14 14:14:07;;;;;;;19.73;14.63;;;;;;;;;;6310862;28;20051;-72
2023/03/14 14:17:11;;;;;;;20.85;15.55;;;;;;;;;;6307572;28;20047;-72
2023/03/14 14:20:21;;;;;;;18.73;15.13;;;;;;;;;;6309548;28;20060;-75
2023/03/14 14:23:27;;;;;;;18.35;15.23;;;;;;;;;;6310574;28;20142;-71
2023/03/14 14:26:30;;;;;;;20.50;14.52;;;;;;;;;;6310941;28;20040;-67
2023/03/14 14:29:34;;;;;;;21.08;14.68;;;;;;;;;;6309827;28;20044;-72
2023/03/14 14:32:37;;;;;;;21.45;14.63;;;;;;;;;;6307486;28;20120;-73
2023/03/14 14:35:39;;;;;;;19.95;14.85;;;;;;;;;;6308028;28;20052;-71
2023/03/14 14:38:40;;;;;;;18.40;14.60;;;;;;;;;;6310597;28;20055;-68
2023/03/14 14:41:44;;;;;;;18.05;13.68;;;;;;;;;;6312382;28;20119;-72
2023/03/14 14:44:46;;;;;;;16.83;13.15;;;;;;;;;;6313443;28;20056;-71
2023/03/14 14:47:52;;;;;;;23.13;13.95;;;;;;;;;;6315696;28;20058;-73
2023/03/14 14:51:00;;;;;;;19.33;13.48;;;;;;;;;;6313036;28;20045;-71
2023/03/14 14:54:14;;;;;;;18.05;12.80;;;;;;;;;;6315566;28;20044;-70
2023/03/14 14:57:21;;;;;;;19.98;13.82;;;;;;;;;;6311718;28;20060;-70
2023/03/14 15:00:25;;;;;;;18.40;13.88;;;;;;;;;;6314008;28;20298;-71
2023/03/14 15:03:29;;;;;;;18.83;12.48;;;;;;;;;;6336345;27;20107;-72
2023/03/14 15:06:31;;;;;;;20.75;14.25;;;;;;;;;;6337819;28;20307;-71
2023/03/14 15:09:33;;;;;;;19.38;13.77;;;;;;;;;;6339652;27;20107;-71
2023/03/14 15:12:36;;;;;;;17.05;13.10;;;;;;;;;;6340446;27;20062;-71
2023/03/14 15:15:38;;;;;;;21.10;13.77;;;;;;;;;;6340903;27;20100;-73
2023/03/14 15:18:40;;;;;;;20.48;13.65;;;;;;;;;;6333404;28;20483;-68
2023/03/14 15:21:41;;;;;;;18.05;13.98;;;;;;;;;;6334739;27;20128;-67
2023/03/14 15:24:44;;;;;;;18.73;14.02;;;;;;;;;;6336017;28;20066;-72
2023/03/14 15:27:47;;;;;;;19.10;13.55;;;;;;;;;;6341111;28;20139;-73
2023/03/14 15:30:50;;;;;;;21.88;13.88;;;;;;;;;;6336730;27;20111;-71
2023/03/14 15:33:51;;;;;;;18.60;14.18;;;;;;;;;;6339318;28;20055;-70
2023/03/14 15:36:53;;;;;;;17.38;13.98;;;;;;;;;;6340234;27;20047;-71
2023/03/14 15:39:57;;;;;;;20.15;14.43;;;;;;;;;;6342348;28;20224;-70
2023/03/14 15:43:00;;;;;;;22.55;14.88;;;;;;;;;;6338930;28;20177;-70
2023/03/14 15:46:02;;;;;;;20.20;15.07;;;;;;;;;;6336284;28;20047;-72
2023/03/14 15:49:04;;;;;;;19.75;14.93;;;;;;;;;;6338425;27;20062;-68
2023/03/14 15:52:07;;;;;;;21.65;15.32;;;;;;;;;;6342419;28;20178;-70
2023/03/14 15:55:09;;;;;;;20.77;15.57;;;;;;;;;;6333425;28;20043;-69
2023/03/14 15:58:17;;;;;;;18.33;14.90;;;;;;;;;;6335807;28;20068;-72
2023/03/14 16:01:18;;;;;;;23.70;15.40;;;;;;;;;;6331921;28;20220;-69
2023/03/14 16:04:20;;;;;;;22.27;16.08;;;;;;;;;;6340330;27;20044;-70
2023/03/14 16:07:22;;;;;;;19.27;14.82;;;;;;;;;;6336673;28;20078;-69
2023/03/14 16:10:23;;;;;;;22.30;16.05;;;;;;;;;;6338770;28;20056;-71
2023/03/14 16:13:27;;;;;;;21.92;15.35;;;;;;;;;;6336177;27;20162;-70
2023/03/14 16:16:29;;;;;;;23.15;16.27;;;;;;;;;;6338443;28;20182;-70
2023/03/14 16:19:30;;;;;;;22.45;15.68;;;;;;;;;;6336284;28;20056;-72
2023/03/14 16:22:34;;;;;;;22.08;16.85;;;;;;;;;;6337061;28;20074;-71
2023/03/14 16:25:36;;;;;;;23.83;16.58;;;;;;;;;;6339980;28;20212;-66
2023/03/14 16:28:39;;;;;;;24.92;16.75;;;;;;;;;;6334533;28;20101;-68
2023/03/14 16:31:41;;;;;;;21.97;15.93;;;;;;;;;;6338102;28;20050;-70
2023/03/14 16:34:43;;;;;;;19.50;14.63;;;;;;;;;;6333458;27;20277;-71
2023/03/14 16:37:45;;;;;;;21.58;15.10;;;;;;;;;;6342632;27;20043;-68
2023/03/14 16:40:56;;;;;;;21.65;15.68;;;;;;;;;;6337064;28;20043;-70
2023/03/14 16:44:00;;;;;;;21.77;14.88;;;;;;;;;;6333550;28;20229;-70
2023/03/14 16:47:02;;;;;;;;;;;;;;;;;;6335472;28;20268;-70
2023/03/14 16:50:04;;;;;;;18.95;13.95;;;;;;;;;;6338459;28;19969;-69
2023/03/14 16:53:05;;;;;;;18.30;14.20;;;;;;;;;;6337944;27;20047;-71
2023/03/14 16:56:08;;;;;;;22.95;14.85;;;;;;;;;;6337543;28;20043;-72
2023/03/14 16:59:11;;;;;;;19.17;14.15;;;;;;;;;;6338289;28;20101;-68
2023/03/14 17:02:13;;;;;;;25.03;14.63;;;;;;;;;;6337461;27;20055;-71
2023/03/14 17:05:14;;;;;;;20.33;14.55;;;;;;;;;;6332411;28;22709;-70
2023/03/14 17:08:18;;;;;;;21.50;13.85;;;;;;;;;;6337915;28;20081;-69
2023/03/14 17:11:20;;;;;;;20.75;13.57;;;;;;;;;;6336145;28;20106;-70
2023/03/14 17:14:25;;;;;;;21.30;13.57;;;;;;;;;;6338895;28;20090;-70
2023/03/14 17:17:26;;;;;;;20.63;13.90;;;;;;;;;;6332623;28;20055;-70
2023/03/14 17:20:28;;;;;;;20.08;14.10;;;;;;;;;;6340751;28;20067;-68
2023/03/14 17:23:31;;;;;;;20.63;13.30;;;;;;;;;;6336517;28;20111;-68
2023/03/14 17:26:33;;;;;;;18.42;13.57;;;;;;;;;;6336657;28;20062;-70
2023/03/14 17:29:36;;;;;;;20.45;13.30;;;;;;;;;;6337488;28;20063;-70
2023/03/14 17:32:37;;;;;;;29.52;18.45;;;;;;;;;;6335325;28;20326;-72
2023/03/14 17:35:40;;;;;;;16.83;12.52;;;;;;;;;;6336428;28;20055;-70
2023/03/14 17:38:42;;;;;;;21.15;12.15;;;;;;;;;;6337816;27;20051;-67
2023/03/14 17:41:46;;;;;;;19.73;13.07;;;;;;;;;;6336337;28;20056;-71
2023/03/14 17:44:50;;;;;;;18.05;11.65;;;;;;;;;;6337666;28;20070;-70
2023/03/14 17:47:52;;;;;;;16.75;10.85;;;;;;;;;;6334173;28;20051;-70